sensor_id;sensor_type;location;lat;lon;timestamp;pressure;altitude;pressure_sealevel;temperature;humidity
70229;BME280;57617;51.988;5.854;2023-04-06T00:00:45;101385.97;;;9.32;42.72
70229;BME280;57617;51.988;5.854;2023-04-06T00:03:11;101387.63;;;9.33;43.22
70229;BME280;57617;51.988;5.854;2023-04-06T00:05:36;101387.00;;;9.31;42.72
70229;BME280;57617;51.988;5.854;2023-04-06T00:08:01;101387.44;;;9.28;42.90
70229;BME280;57617;51.988;5.854;2023-04-06T00:10:26;101370.97;;;9.29;42.54
70229;BME280;57617;51.988;5.854;2023-04-06T00:12:52;101376.38;;;9.29;43.28
70229;BME280;57617;51.988;5.854;2023-04-06T00:15:19;101375.13;;;9.32;42.92
70229;BME280;57617;51.988;5.854;2023-04-06T00:17:44;101377.84;;;9.32;42.74
70229;BME280;57617;51.988;5.854;2023-04-06T00:20:10;101379.50;;;9.33;42.84
70229;BME280;57617;51.988;5.854;2023-04-06T00:22:35;101369.09;;;9.23;42.91
70229;BME280;57617;51.988;5.854;2023-04-06T00:25:01;101372.25;;;9.27;43.58
70229;BME280;57617;51.988;5.854;2023-04-06T00:27:26;101359.78;;;9.19;42.83
70229;BME280;57617;51.988;5.854;2023-04-06T00:29:52;101365.78;;;9.21;43.51
70229;BME280;57617;51.988;5.854;2023-04-06T00:32:17;101362.50;;;9.19;43.35
70229;BME280;57617;51.988;5.854;2023-04-06T00:34:42;101362.88;;;9.23;43.37
70229;BME280;57617;51.988;5.854;2023-04-06T00:37:08;101358.25;;;9.23;43.77
70229;BME280;57617;51.988;5.854;2023-04-06T00:39:33;101352.25;;;9.21;43.30
70229;BME280;57617;51.988;5.854;2023-04-06T00:41:58;101343.94;;;9.16;43.29
70229;BME280;57617;51.988;5.854;2023-04-06T00:44:25;101351.47;;;9.14;43.23
70229;BME280;57617;51.988;5.854;2023-04-06T00:46:50;101335.28;;;9.01;43.92
70229;BME280;57617;51.988;5.854;2023-04-06T00:49:16;101347.78;;;9.02;44.58
70229;BME280;57617;51.988;5.854;2023-04-06T00:51:41;101340.09;;;8.99;43.93
70229;BME280;57617;51.988;5.854;2023-04-06T00:54:06;101343.03;;;8.91;44.17
70229;BME280;57617;51.988;5.854;2023-04-06T00:56:32;101337.25;;;8.81;44.99
70229;BME280;57617;51.988;5.854;2023-04-06T00:58:57;101342.09;;;8.79;44.99
70229;BME280;57617;51.988;5.854;2023-04-06T01:01:23;101330.22;;;8.74;44.49
70229;BME280;57617;51.988;5.854;2023-04-06T01:03:49;101328.78;;;8.71;45.03
70229;BME280;57617;51.988;5.854;2023-04-06T01:06:15;101336.91;;;8.71;44.75
70229;BME280;57617;51.988;5.854;2023-04-06T01:08:41;101327.34;;;8.62;44.70
70229;BME280;57617;51.988;5.854;2023-04-06T01:11:06;101325.69;;;8.68;45.48
70229;BME280;57617;51.988;5.854;2023-04-06T01:13:31;101325.69;;;8.61;45.33
70229;BME280;57617;51.988;5.854;2023-04-06T01:15:57;101307.00;;;8.53;45.50
70229;BME280;57617;51.988;5.854;2023-04-06T01:18:26;101313.41;;;8.59;44.96
70229;BME280;57617;51.988;5.854;2023-04-06T01:20:52;101304.31;;;8.53;45.26
70229;BME280;57617;51.988;5.854;2023-04-06T01:23:17;101312.38;;;8.60;44.83
70229;BME280;57617;51.988;5.854;2023-04-06T01:25:42;101310.50;;;8.60;45.13
70229;BME280;57617;51.988;5.854;2023-04-06T01:28:08;101313.81;;;8.62;45.35
70229;BME280;57617;51.988;5.854;2023-04-06T01:30:33;101310.91;;;8.64;44.72
70229;BME280;57617;51.988;5.854;2023-04-06T01:32:58;101306.13;;;8.66;44.77
70229;BME280;57617;51.988;5.854;2023-04-06T01:35:27;101303.81;;;8.69;45.35
70229;BME280;57617;51.988;5.854;2023-04-06T01:37:53;101301.09;;;8.69;45.47
70229;BME280;57617;51.988;5.854;2023-04-06T01:40:18;101293.84;;;8.63;44.89
70229;BME280;57617;51.988;5.854;2023-04-06T01:42:44;101297.16;;;8.65;44.97
70229;BME280;57617;51.988;5.854;2023-04-06T01:45:09;101296.09;;;8.66;45.15
70229;BME280;57617;51.988;5.854;2023-04-06T01:47:35;101287.78;;;8.61;45.06
70229;BME280;57617;51.988;5.854;2023-04-06T01:50:00;101286.75;;;8.62;45.97
70229;BME280;57617;51.988;5.854;2023-04-06T01:52:28;101284.66;;;8.64;45.53
70229;BME280;57617;51.988;5.854;2023-04-06T01:54:54;101290.09;;;8.64;44.75
70229;BME280;57617;51.988;5.854;2023-04-06T01:57:19;101294.88;;;8.62;45.50
70229;BME280;57617;51.988;5.854;2023-04-06T01:59:45;101279.66;;;8.61;44.92
70229;BME280;57617;51.988;5.854;2023-04-06T02:02:10;101279.84;;;8.66;45.36
70229;BME280;57617;51.988;5.854;2023-04-06T02:04:35;101279.03;;;8.66;45.29
70229;BME280;57617;51.988;5.854;2023-04-06T02:07:00;101275.69;;;8.64;44.79
70229;BME280;57617;51.988;5.854;2023-04-06T02:09:26;101270.94;;;8.59;45.73
70229;BME280;57617;51.988;5.854;2023-04-06T02:11:51;101274.91;;;8.57;45.70
70229;BME280;57617;51.988;5.854;2023-04-06T02:14:16;101266.16;;;8.55;45.81
70229;BME280;57617;51.988;5.854;2023-04-06T02:16:42;101267.00;;;8.55;45.90
70229;BME280;57617;51.988;5.854;2023-04-06T02:19:07;101263.88;;;8.58;45.54
70229;BME280;57617;51.988;5.854;2023-04-06T02:21:32;101263.88;;;8.58;45.35
70229;BME280;57617;51.988;5.854;2023-04-06T02:23:57;101263.63;;;8.60;45.73
70229;BME280;57617;51.988;5.854;2023-04-06T02:26:23;101258.22;;;8.60;45.48
70229;BME280;57617;51.988;5.854;2023-04-06T02:28:48;101263.63;;;8.60;45.78
70229;BME280;57617;51.988;5.854;2023-04-06T02:31:14;101254.06;;;8.57;44.91
70229;BME280;57617;51.988;5.854;2023-04-06T02:33:40;101250.97;;;8.54;45.99
70229;BME280;57617;51.988;5.854;2023-04-06T02:36:05;101245.56;;;8.54;45.57
70229;BME280;57617;51.988;5.854;2023-04-06T02:38:31;101242.63;;;8.55;45.09
70229;BME280;57617;51.988;5.854;2023-04-06T02:40:56;101249.91;;;8.55;45.69
70229;BME280;57617;51.988;5.854;2023-04-06T02:43:21;101243.47;;;8.56;45.08
70229;BME280;57617;51.988;5.854;2023-04-06T02:45:46;101240.78;;;8.56;45.70
70229;BME280;57617;51.988;5.854;2023-04-06T02:48:12;101240.78;;;8.56;46.12
70229;BME280;57617;51.988;5.854;2023-04-06T02:50:37;101235.13;;;8.57;45.83
70229;BME280;57617;51.988;5.854;2023-04-06T02:53:02;101233.25;;;8.58;45.65
70229;BME280;57617;51.988;5.854;2023-04-06T02:55:27;101230.97;;;8.55;45.61
70229;BME280;57617;51.988;5.854;2023-04-06T02:57:53;101232.41;;;8.57;45.57
70229;BME280;57617;51.988;5.854;2023-04-06T03:00:18;101235.97;;;8.58;45.84
70229;BME280;57617;51.988;5.854;2023-04-06T03:02:44;101227.63;;;8.59;45.83
70229;BME280;57617;51.988;5.854;2023-04-06T03:05:09;101229.94;;;8.56;45.90
70229;BME280;57617;51.988;5.854;2023-04-06T03:07:34;101214.97;;;8.53;45.43
70229;BME280;57617;51.988;5.854;2023-04-06T03:10:00;101226.56;;;8.60;45.33
70229;BME280;57617;51.988;5.854;2023-04-06T03:12:25;101226.56;;;8.60;45.67
70229;BME280;57617;51.988;5.854;2023-04-06T03:14:50;101228.63;;;8.65;45.87
70229;BME280;57617;51.988;5.854;2023-04-06T03:17:16;101223.19;;;8.65;45.56
70229;BME280;57617;51.988;5.854;2023-04-06T03:19:41;101223.19;;;8.65;45.50
70229;BME280;57617;51.988;5.854;2023-04-06T03:22:06;101216.97;;;8.64;46.01
70229;BME280;57617;51.988;5.854;2023-04-06T03:24:31;101207.19;;;8.63;45.99
70229;BME280;57617;51.988;5.854;2023-04-06T03:26:57;101219.47;;;8.66;45.88
70229;BME280;57617;51.988;5.854;2023-04-06T03:29:22;101206.97;;;8.65;45.46
70229;BME280;57617;51.988;5.854;2023-04-06T03:31:48;101212.16;;;8.66;45.31
70229;BME280;57617;51.988;5.854;2023-04-06T03:34:13;101216.94;;;8.71;46.19
70229;BME280;57617;51.988;5.854;2023-04-06T03:36:38;101208.19;;;8.69;46.07
70229;BME280;57617;51.988;5.854;2023-04-06T03:39:04;101214.44;;;8.69;45.88
70229;BME280;57617;51.988;5.854;2023-04-06T03:41:29;101207.78;;;8.65;45.41
70229;BME280;57617;51.988;5.854;2023-04-06T03:43:55;101190.81;;;8.52;45.81
70229;BME280;57617;51.988;5.854;2023-04-06T03:46:20;101205.78;;;8.54;45.20
70229;BME280;57617;51.988;5.854;2023-04-06T03:48:48;101204.13;;;8.53;46.26
70229;BME280;57617;51.988;5.854;2023-04-06T03:51:13;101195.38;;;8.51;45.96
70229;BME280;57617;51.988;5.854;2023-04-06T03:53:39;101201.25;;;8.48;45.89
70229;BME280;57617;51.988;5.854;2023-04-06T03:56:04;101196.44;;;8.50;46.06
70229;BME280;57617;51.988;5.854;2023-04-06T03:58:30;101199.59;;;8.47;45.85
70229;BME280;57617;51.988;5.854;2023-04-06T04:00:55;101198.34;;;8.50;45.52
70229;BME280;57617;51.988;5.854;2023-04-06T04:03:21;101196.44;;;8.50;45.91
70229;BME280;57617;51.988;5.854;2023-04-06T04:05:48;101188.53;;;8.49;45.50
70229;BME280;57617;51.988;5.854;2023-04-06T04:08:13;101191.66;;;8.52;45.77
70229;BME280;57617;51.988;5.854;2023-04-06T04:10:38;101191.19;;;8.55;45.28
70229;BME280;57617;51.988;5.854;2023-04-06T04:13:04;101196.41;;;8.57;45.76
70229;BME280;57617;51.988;5.854;2023-04-06T04:15:29;101195.38;;;8.51;45.25
70229;BME280;57617;51.988;5.854;2023-04-06T04:17:54;101191.69;;;8.46;45.59
70229;BME280;57617;51.988;5.854;2023-04-06T04:20:20;101197.50;;;8.49;45.47
70229;BME280;57617;51.988;5.854;2023-04-06T04:22:45;101199.16;;;8.50;46.10
70229;BME280;57617;51.988;5.854;2023-04-06T04:25:10;101208.75;;;8.46;46.41
70229;BME280;57617;51.988;5.854;2023-04-06T04:27:36;101190.03;;;8.45;45.82
70229;BME280;57617;51.988;5.854;2023-04-06T04:30:01;101205.78;;;8.54;46.30
70229;BME280;57617;51.988;5.854;2023-04-06T04:32:26;101197.91;;;8.46;46.35
70229;BME280;57617;51.988;5.854;2023-04-06T04:34:53;101197.31;;;8.44;46.05
70229;BME280;57617;51.988;5.854;2023-04-06T04:37:18;101213.06;;;8.54;45.57
70229;BME280;57617;51.988;5.854;2023-04-06T04:39:45;101210.19;;;8.49;46.51
70229;BME280;57617;51.988;5.854;2023-04-06T04:42:10;101209.00;;;8.38;45.56
70229;BME280;57617;51.988;5.854;2023-04-06T04:44:35;101207.53;;;8.42;46.18
70229;BME280;57617;51.988;5.854;2023-04-06T04:47:01;101206.50;;;8.43;46.69
70229;BME280;57617;51.988;5.854;2023-04-06T04:49:26;101197.31;;;8.44;46.32
70229;BME280;57617;51.988;5.854;2023-04-06T04:51:51;101201.72;;;8.39;46.18
70229;BME280;57617;51.988;5.854;2023-04-06T04:54:17;101197.13;;;8.39;46.05
70229;BME280;57617;51.988;5.854;2023-04-06T04:56:43;101202.97;;;8.36;45.92
70229;BME280;57617;51.988;5.854;2023-04-06T04:59:08;101192.16;;;8.36;46.49
70229;BME280;57617;51.988;5.854;2023-04-06T05:01:33;101197.56;;;8.36;46.82
70229;BME280;57617;51.988;5.854;2023-04-06T05:03:58;101185.53;;;8.32;46.94
70229;BME280;57617;51.988;5.854;2023-04-06T05:06:24;101189.22;;;8.38;46.27
70229;BME280;57617;51.988;5.854;2023-04-06T05:08:50;101189.44;;;8.36;46.85
70229;BME280;57617;51.988;5.854;2023-04-06T05:11:15;101195.31;;;8.33;47.41
70229;BME280;57617;51.988;5.854;2023-04-06T05:13:41;101188.66;;;8.29;47.26
70229;BME280;57617;51.988;5.854;2023-04-06T05:16:06;101190.34;;;8.24;46.70
70229;BME280;57617;51.988;5.854;2023-04-06T05:18:32;101195.13;;;8.28;46.67
70229;BME280;57617;51.988;5.854;2023-04-06T05:20:57;101192.81;;;8.32;46.43
70229;BME280;57617;51.988;5.854;2023-04-06T05:23:22;101168.69;;;8.24;47.32
70229;BME280;57617;51.988;5.854;2023-04-06T05:25:47;101186.56;;;8.31;47.20
70229;BME280;57617;51.988;5.854;2023-04-06T05:28:13;101184.69;;;8.32;47.44
70229;BME280;57617;51.988;5.854;2023-04-06T05:30:40;101183.81;;;8.38;46.49
70229;BME280;57617;51.988;5.854;2023-04-06T05:33:05;101181.75;;;8.40;47.11
70229;BME280;57617;51.988;5.854;2023-04-06T05:35:31;101180.66;;;8.47;46.92
70229;BME280;57617;51.988;5.854;2023-04-06T05:37:56;101186.66;;;8.49;46.88
70229;BME280;57617;51.988;5.854;2023-04-06T05:40:21;101187.25;;;8.51;47.06
70229;BME280;57617;51.988;5.854;2023-04-06T05:42:46;101175.41;;;8.52;47.10
70229;BME280;57617;51.988;5.854;2023-04-06T05:45:12;101175.34;;;8.59;46.60
70229;BME280;57617;51.988;5.854;2023-04-06T05:47:44;101182.00;;;8.63;47.45
70229;BME280;57617;51.988;5.854;2023-04-06T05:50:11;101172.81;;;8.64;46.35
70229;BME280;57617;51.988;5.854;2023-04-06T05:52:36;101176.53;;;8.69;46.68
70229;BME280;57617;51.988;5.854;2023-04-06T05:55:03;101176.31;;;8.71;46.57
70229;BME280;57617;51.988;5.854;2023-04-06T05:57:28;101177.13;;;8.71;46.27
70229;BME280;57617;51.988;5.854;2023-04-06T05:59:53;101175.06;;;8.73;46.54
70229;BME280;57617;51.988;5.854;2023-04-06T06:02:20;101174.38;;;8.78;46.34
70229;BME280;57617;51.988;5.854;2023-04-06T06:04:45;101171.63;;;8.84;46.58
70229;BME280;57617;51.988;5.854;2023-04-06T06:07:11;101182.16;;;8.92;46.23
70229;BME280;57617;51.988;5.854;2023-04-06T06:09:36;101172.94;;;9.00;46.69
70229;BME280;57617;51.988;5.854;2023-04-06T06:12:01;101176.66;;;9.05;45.92
70229;BME280;57617;51.988;5.854;2023-04-06T06:14:26;101166.16;;;9.15;46.31
70229;BME280;57617;51.988;5.854;2023-04-06T06:16:54;101173.09;;;9.29;45.94
70229;BME280;57617;51.988;5.854;2023-04-06T06:19:20;101164.28;;;9.34;46.28
70229;BME280;57617;51.988;5.854;2023-04-06T06:21:45;101165.25;;;9.39;45.73
70229;BME280;57617;51.988;5.854;2023-04-06T06:24:10;101155.94;;;9.35;45.19
70229;BME280;57617;51.988;5.854;2023-04-06T06:26:36;101161.38;;;9.35;45.61
70229;BME280;57617;51.988;5.854;2023-04-06T06:29:02;101160.47;;;9.41;45.88
70229;BME280;57617;51.988;5.854;2023-04-06T06:31:28;101165.41;;;9.44;46.00
70229;BME280;57617;51.988;5.854;2023-04-06T06:33:53;101167.00;;;9.52;45.49
70229;BME280;57617;51.988;5.854;2023-04-06T06:36:19;101161.34;;;9.53;45.37
70229;BME280;57617;51.988;5.854;2023-04-06T06:38:44;101175.22;;;9.63;45.86
70229;BME280;57617;51.988;5.854;2023-04-06T06:41:10;101169.66;;;9.76;45.78
70229;BME280;57617;51.988;5.854;2023-04-06T06:43:36;101170.47;;;9.77;44.88
70229;BME280;57617;51.988;5.854;2023-04-06T06:46:02;101170.88;;;9.80;45.18
70229;BME280;57617;51.988;5.854;2023-04-06T06:48:27;101159.47;;;9.90;45.45
70229;BME280;57617;51.988;5.854;2023-04-06T06:50:52;101167.91;;;10.00;45.44
70229;BME280;57617;51.988;5.854;2023-04-06T06:53:18;101166.19;;;10.05;45.02
70229;BME280;57617;51.988;5.854;2023-04-06T06:55:43;101162.09;;;10.14;45.39
70229;BME280;57617;51.988;5.854;2023-04-06T06:58:11;101163.09;;;10.20;45.20
70229;BME280;57617;51.988;5.854;2023-04-06T07:00:36;101167.00;;;10.24;45.21
70229;BME280;57617;51.988;5.854;2023-04-06T07:03:02;101156.38;;;10.22;44.98
70229;BME280;57617;51.988;5.854;2023-04-06T07:05:27;101154.94;;;10.20;44.69
70229;BME280;57617;51.988;5.854;2023-04-06T07:07:53;101157.03;;;10.18;44.89
70229;BME280;57617;51.988;5.854;2023-04-06T07:10:18;101151.59;;;10.18;44.96
70229;BME280;57617;51.988;5.854;2023-04-06T07:12:44;101140.09;;;10.22;45.06
70229;BME280;57617;51.988;5.854;2023-04-06T07:15:09;101146.69;;;10.26;45.40
70229;BME280;57617;51.988;5.854;2023-04-06T07:17:34;101144.88;;;10.20;45.03
70229;BME280;57617;51.988;5.854;2023-04-06T07:20:00;101129.91;;;10.18;45.52
70229;BME280;57617;51.988;5.854;2023-04-06T07:22:25;101140.59;;;10.31;45.32
70229;BME280;57617;51.988;5.854;2023-04-06T07:24:50;101144.84;;;10.38;45.39
70229;BME280;57617;51.988;5.854;2023-04-06T07:27:16;101145.44;;;10.40;45.39
70229;BME280;57617;51.988;5.854;2023-04-06T07:29:42;101143.47;;;10.47;45.22
70229;BME280;57617;51.988;5.854;2023-04-06T07:32:07;101147.47;;;10.45;44.07
70229;BME280;57617;51.988;5.854;2023-04-06T07:34:33;101141.78;;;10.46;44.70
70229;BME280;57617;51.988;5.854;2023-04-06T07:36:58;101144.69;;;10.63;44.92
70229;BME280;57617;51.988;5.854;2023-04-06T07:39:25;101144.47;;;10.76;44.75
70229;BME280;57617;51.988;5.854;2023-04-06T07:41:51;101149.91;;;10.87;44.56
70229;BME280;57617;51.988;5.854;2023-04-06T07:44:17;101142.38;;;10.89;44.12
70229;BME280;57617;51.988;5.854;2023-04-06T07:46:42;101148.88;;;10.88;43.93
70229;BME280;57617;51.988;5.854;2023-04-06T07:49:07;101137.25;;;10.81;44.11
70229;BME280;57617;51.988;5.854;2023-04-06T07:51:35;101131.34;;;10.73;43.94
70229;BME280;57617;51.988;5.854;2023-04-06T07:54:01;101134.91;;;10.85;44.43
70229;BME280;57617;51.988;5.854;2023-04-06T07:56:26;101133.88;;;10.86;44.29
70229;BME280;57617;51.988;5.854;2023-04-06T07:58:51;101142.16;;;10.91;44.04
70229;BME280;57617;51.988;5.854;2023-04-06T08:01:17;101114.72;;;10.81;44.08
70229;BME280;57617;51.988;5.854;2023-04-06T08:03:42;101143.31;;;10.95;44.41
70229;BME280;57617;51.988;5.854;2023-04-06T08:06:07;101128.69;;;10.96;44.54
70229;BME280;57617;51.988;5.854;2023-04-06T08:08:33;101133.97;;;11.02;44.20
70229;BME280;57617;51.988;5.854;2023-04-06T08:10:58;101128.09;;;11.05;44.42
70229;BME280;57617;51.988;5.854;2023-04-06T08:13:23;101128.91;;;11.06;44.30
70229;BME280;57617;51.988;5.854;2023-04-06T08:15:49;101129.16;;;11.04;44.06
70229;BME280;57617;51.988;5.854;2023-04-06T08:18:14;101126.28;;;11.11;44.26
70229;BME280;57617;51.988;5.854;2023-04-06T08:20:40;101116.84;;;11.13;44.46
70229;BME280;57617;51.988;5.854;2023-04-06T08:23:05;101127.81;;;11.18;44.18
70229;BME280;57617;51.988;5.854;2023-04-06T08:25:33;101129.38;;;11.26;44.24
70229;BME280;57617;51.988;5.854;2023-04-06T08:27:59;101130.09;;;11.33;44.22
70229;BME280;57617;51.988;5.854;2023-04-06T08:30:24;101126.53;;;11.32;43.89
70229;BME280;57617;51.988;5.854;2023-04-06T08:32:50;101127.81;;;11.41;44.04
70229;BME280;57617;51.988;5.854;2023-04-06T08:35:15;101123.56;;;11.45;43.84
70229;BME280;57617;51.988;5.854;2023-04-06T08:37:40;101125.56;;;11.50;43.82
70229;BME280;57617;51.988;5.854;2023-04-06T08:40:06;101125.44;;;11.56;43.71
70229;BME280;57617;51.988;5.854;2023-04-06T08:42:32;101121.22;;;11.60;43.76
70229;BME280;57617;51.988;5.854;2023-04-06T08:44:59;101115.13;;;11.58;43.53
70229;BME280;57617;51.988;5.854;2023-04-06T08:47:25;101118.00;;;11.63;43.32
70229;BME280;57617;51.988;5.854;2023-04-06T08:49:51;101118.44;;;11.72;43.41
70229;BME280;57617;51.988;5.854;2023-04-06T08:52:18;101124.59;;;11.79;42.79
70229;BME280;57617;51.988;5.854;2023-04-06T08:54:44;101122.13;;;11.77;43.31
70229;BME280;57617;51.988;5.854;2023-04-06T08:57:09;101122.78;;;11.84;43.36
70229;BME280;57617;51.988;5.854;2023-04-06T08:59:35;101118.38;;;11.95;43.19
70229;BME280;57617;51.988;5.854;2023-04-06T09:02:03;101120.00;;;12.07;43.08
70229;BME280;57617;51.988;5.854;2023-04-06T09:04:28;101127.28;;;12.18;42.90
70229;BME280;57617;51.988;5.854;2023-04-06T09:06:53;101114.59;;;12.24;42.94
70229;BME280;57617;51.988;5.854;2023-04-06T09:09:19;101117.16;;;12.30;43.22
70229;BME280;57617;51.988;5.854;2023-04-06T09:11:46;101114.81;;;12.34;43.01
70229;BME280;57617;51.988;5.854;2023-04-06T09:14:12;101122.31;;;12.43;42.87
70229;BME280;57617;51.988;5.854;2023-04-06T09:16:45;101112.16;;;12.55;43.47
70229;BME280;57617;51.988;5.854;2023-04-06T09:19:11;101104.31;;;12.59;43.03
70229;BME280;57617;51.988;5.854;2023-04-06T09:21:38;101115.16;;;12.70;42.92
70229;BME280;57617;51.988;5.854;2023-04-06T09:24:06;101115.00;;;12.77;42.89
70229;BME280;57617;51.988;5.854;2023-04-06T09:26:32;101118.38;;;12.84;42.84
70229;BME280;57617;51.988;5.854;2023-04-06T09:28:59;101115.50;;;12.90;42.88
70229;BME280;57617;51.988;5.854;2023-04-06T09:31:30;101116.75;;;12.99;42.69
70229;BME280;57617;51.988;5.854;2023-04-06T09:33:58;101117.72;;;13.10;42.61
70229;BME280;57617;51.988;5.854;2023-04-06T09:36:34;101117.63;;;13.21;42.16
70229;BME280;57617;51.988;5.854;2023-04-06T09:39:02;101104.31;;;13.25;42.59
70229;BME280;57617;51.988;5.854;2023-04-06T09:41:30;101107.03;;;13.41;42.66
70229;BME280;57617;51.988;5.854;2023-04-06T09:44:04;101103.88;;;13.49;42.11
70229;BME280;57617;51.988;5.854;2023-04-06T09:46:35;101106.13;;;13.57;42.62
70229;BME280;57617;51.988;5.854;2023-04-06T09:49:03;101108.75;;;13.69;41.98
70229;BME280;57617;51.988;5.854;2023-04-06T09:52:02;101107.44;;;13.71;41.88
70229;BME280;57617;51.988;5.854;2023-04-06T09:54:29;101112.09;;;13.76;42.18
70229;BME280;57617;51.988;5.854;2023-04-06T09:56:58;101112.75;;;13.83;42.58
70229;BME280;57617;51.988;5.854;2023-04-06T10:02:25;101112.06;;;13.92;42.30
70229;BME280;57617;51.988;5.854;2023-04-06T10:07:48;101101.13;;;13.92;42.17
70229;BME280;57617;51.988;5.854;2023-04-06T10:10:15;101121.34;;;13.91;42.06
70229;BME280;57617;51.988;5.854;2023-04-06T10:12:41;101123.22;;;13.91;42.10
70229;BME280;57617;51.988;5.854;2023-04-06T10:15:07;101125.16;;;13.90;41.88
70229;BME280;57617;51.988;5.854;2023-04-06T10:17:33;101123.75;;;13.88;42.44
70229;BME280;57617;51.988;5.854;2023-04-06T10:22:41;101128.00;;;13.79;42.29
70229;BME280;57617;51.988;5.854;2023-04-06T10:25:08;101134.19;;;13.74;42.56
70229;BME280;57617;51.988;5.854;2023-04-06T10:27:34;101132.81;;;13.72;42.45
70229;BME280;57617;51.988;5.854;2023-04-06T10:30:04;101123.22;;;13.69;42.80
70229;BME280;57617;51.988;5.854;2023-04-06T10:35:11;101121.88;;;13.72;43.35
70229;BME280;57617;51.988;5.854;2023-04-06T10:38:01;101129.09;;;13.78;43.08
70229;BME280;57617;51.988;5.854;2023-04-06T10:40:27;101125.03;;;13.80;42.80
70229;BME280;57617;51.988;5.854;2023-04-06T10:42:54;101121.19;;;13.81;42.77
70229;BME280;57617;51.988;5.854;2023-04-06T10:45:25;101122.59;;;13.84;43.24
70229;BME280;57617;51.988;5.854;2023-04-06T10:47:54;101117.44;;;13.87;42.85
70229;BME280;57617;51.988;5.854;2023-04-06T10:50:20;101114.53;;;13.94;43.22
70229;BME280;57617;51.988;5.854;2023-04-06T10:52:46;101111.09;;;14.03;43.07
70229;BME280;57617;51.988;5.854;2023-04-06T10:55:15;101119.38;;;14.13;43.34
70229;BME280;57617;51.988;5.854;2023-04-06T10:57:40;101112.22;;;14.29;43.43
70229;BME280;57617;51.988;5.854;2023-04-06T11:00:07;101093.31;;;14.22;43.42
70229;BME280;57617;51.988;5.854;2023-04-06T11:02:49;101110.94;;;14.36;43.21
70229;BME280;57617;51.988;5.854;2023-04-06T11:05:15;101098.28;;;14.30;43.40
70229;BME280;57617;51.988;5.854;2023-04-06T11:07:41;101105.97;;;14.33;43.41
70229;BME280;57617;51.988;5.854;2023-04-06T11:10:07;101107.88;;;14.33;43.82
70229;BME280;57617;51.988;5.854;2023-04-06T11:12:33;101108.47;;;14.35;43.81
70229;BME280;57617;51.988;5.854;2023-04-06T11:15:00;101104.88;;;14.34;44.08
70229;BME280;57617;51.988;5.854;2023-04-06T11:17:28;101109.56;;;14.34;43.83
70229;BME280;57617;51.988;5.854;2023-04-06T11:19:55;101109.00;;;14.37;44.33
70229;BME280;57617;51.988;5.854;2023-04-06T11:22:20;101113.09;;;14.34;44.15
70229;BME280;57617;51.988;5.854;2023-04-06T11:24:45;101106.81;;;14.34;44.65
70229;BME280;57617;51.988;5.854;2023-04-06T11:27:11;101110.34;;;14.34;44.55
70229;BME280;57617;51.988;5.854;2023-04-06T11:29:37;101100.25;;;14.35;44.76
70229;BME280;57617;51.988;5.854;2023-04-06T11:32:06;101073.25;;;14.17;45.98
70229;BME280;57617;51.988;5.854;2023-04-06T11:34:39;101101.91;;;14.36;45.53
70229;BME280;57617;51.988;5.854;2023-04-06T11:37:10;101104.09;;;14.34;46.19
70229;BME280;57617;51.988;5.854;2023-04-06T11:39:40;101113.56;;;14.26;46.36
70229;BME280;57617;51.988;5.854;2023-04-06T11:42:06;101104.47;;;14.21;47.15
70229;BME280;57617;51.988;5.854;2023-04-06T11:44:34;101107.59;;;14.08;48.14
70229;BME280;57617;51.988;5.854;2023-04-06T11:47:04;101109.69;;;14.01;49.44
70229;BME280;57617;51.988;5.854;2023-04-06T11:49:30;101102.22;;;13.91;49.35
70229;BME280;57617;51.988;5.854;2023-04-06T11:51:57;101107.31;;;13.83;50.30
70229;BME280;57617;51.988;5.854;2023-04-06T11:54:38;101112.34;;;13.74;52.36
70229;BME280;57617;51.988;5.854;2023-04-06T11:57:04;101103.22;;;13.64;50.90
70229;BME280;57617;51.988;5.854;2023-04-06T11:59:31;101108.25;;;13.50;51.24
70229;BME280;57617;51.988;5.854;2023-04-06T12:02:00;101109.50;;;13.43;52.25
70229;BME280;57617;51.988;5.854;2023-04-06T12:04:26;101106.09;;;13.36;51.48
70229;BME280;57617;51.988;5.854;2023-04-06T12:06:51;101100.34;;;13.32;51.78
70229;BME280;57617;51.988;5.854;2023-04-06T12:09:17;101096.91;;;13.20;52.30
70229;BME280;57617;51.988;5.854;2023-04-06T12:11:42;101098.41;;;13.11;52.34
70229;BME280;57617;51.988;5.854;2023-04-06T12:14:08;101108.06;;;13.02;52.58
70229;BME280;57617;51.988;5.854;2023-04-06T12:16:34;101101.22;;;13.00;53.01
70229;BME280;57617;51.988;5.854;2023-04-06T12:18:59;101098.38;;;12.95;52.97
70229;BME280;57617;51.988;5.854;2023-04-06T12:21:26;101097.47;;;12.89;53.34
70229;BME280;57617;51.988;5.854;2023-04-06T12:23:52;101101.78;;;12.85;53.31
70229;BME280;57617;51.988;5.854;2023-04-06T12:26:17;101100.03;;;12.79;53.37
70229;BME280;57617;51.988;5.854;2023-04-06T12:28:42;101098.06;;;12.75;53.70
70229;BME280;57617;51.988;5.854;2023-04-06T12:31:17;101092.94;;;12.62;54.00
70229;BME280;57617;51.988;5.854;2023-04-06T12:33:43;101091.44;;;12.54;54.35
70229;BME280;57617;51.988;5.854;2023-04-06T12:36:12;101098.78;;;12.54;54.67
70229;BME280;57617;51.988;5.854;2023-04-06T12:38:38;101093.00;;;12.50;54.63
70229;BME280;57617;51.988;5.854;2023-04-06T12:41:05;101086.38;;;12.46;54.89
70229;BME280;57617;51.988;5.854;2023-04-06T12:43:30;101093.00;;;12.50;55.08
70229;BME280;57617;51.988;5.854;2023-04-06T12:45:56;101091.44;;;12.54;55.49
70229;BME280;57617;51.988;5.854;2023-04-06T12:48:21;101090.88;;;12.52;55.40
70229;BME280;57617;51.988;5.854;2023-04-06T12:50:54;101087.00;;;12.48;56.99
70229;BME280;57617;51.988;5.854;2023-04-06T12:53:19;101046.59;;;12.12;56.63
70229;BME280;57617;51.988;5.854;2023-04-06T12:55:45;101081.19;;;12.28;56.38
70229;BME280;57617;51.988;5.854;2023-04-06T12:58:10;101070.75;;;12.25;56.22
70229;BME280;57617;51.988;5.854;2023-04-06T13:00:36;101070.53;;;12.27;57.02